Lampang, Thailand

5:14 PM ICT on December 08, 2016 (GMT +0700)
Lampang | | Change Station

Elev 794 ft 18.28 °N, 99.51 °E | Updated 14 minutes ago

Mostly Cloudy
Mostly Cloudy
79 °F
Feels Like 79 °F
N
5
Wind Variable Wind from North

Today
High -- | Low -- °F
--% Chance of Precip.
Yesterday
High -- | Low -- °F
Precip. -- in
Pressure 29.89 in
Visibility 6.2 miles
Clouds Scattered Clouds 2000 ft
Mostly Cloudy 2500 ft
Mostly Cloudy 10000 ft
Dew Point 64 °F
Humidity 61%
Rainfall 0.00 in
Snow Depth Not available.
6:41 AM 5:45 PM
First Quarter, 62% visible
METAR VTCL 081000Z 01004KT 9999 SCT020 BKN025 BKN100 26/18 Q1012 A2989
Pressure 29.89 in
Visibility 6.2 miles
Clouds Scattered Clouds 2000 ft
Mostly Cloudy 2500 ft
Mostly Cloudy 10000 ft
Dew Point 64 °F
Humidity 61%
Rainfall 0.00 in
Snow Depth Not available.
6:41 AM 5:45 PM
First Quarter, 62% visible
METAR VTCL 081000Z 01004KT 9999 SCT020 BKN025 BKN100 26/18 Q1012 A2989

10-Day Weather Forecast

No radar image for this location.
×

Almanac

Astronomy

Dec. 08, 2016 Rise Set
Actual Time
Civil Twilight
Nautical Twilight
Astronomical Twilight
Moon
Length of Visible Light
Length of Day
Tomorrow will be .
, % of the Moon is Illuminated

Today's Extremes

Country Highs Country Lows

Community

WunderPhotos

Upload Photos

1,956,261 photos uploaded!

WunderBlog® & News

Nearby

Air Quality

  Air Quality AQ Index Pollutant
Not available.

Snow Depth

Station Depth Elevation

Earthquake Activity

City Distance Mag. Time & Date
Minimum magnitude displayed is 2.5.

Coastal Water Temperatures

Place Temperature

Stations

Nearby Weather Stations

Station Location Temp. Windchill Dew Point Humidity Wind Precip. Elev Updated Type